| time (UTC) | temp C | wind direction | speed KPH | gust KPH | rain 1hr cm | rain 24hr cm | rain mn cm | humidity % | barometer mb |
| 20260906193048 | 21 | 0 | 0.0 | 6.4 | 0.08 | 1.37 | 1.37 | 89 | 1014.6 |
| 20260906191547 | 20 | 0 | 3.2 | 11.3 | 0.08 | 1.32 | 1.32 | 89 | 1014.4 |
| 20260906190046 | 20 | 51 | 3.2 | 11.3 | 0.13 | 1.32 | 1.32 | 89 | 1014.5 |
| 20260906184554 | 20 | 350 | 3.2 | 6.4 | 0.20 | 1.32 | 1.32 | 89 | 1015.5 |
| 20260906183049 | 20 | 5 | 1.6 | 8.0 | 0.30 | 1.30 | 1.30 | 88 | 1015.6 |
| 20260906181551 | 20 | 0 | 0.0 | 4.8 | 0.66 | 1.24 | 1.24 | 88 | 1015.6 |
| 20260906180055 | 20 | 0 | 1.6 | 8.0 | 0.81 | 1.22 | 1.22 | 87 | 1015.7 |
| 20260906174553 | 20 | 323 | 0.0 | 8.0 | 0.81 | 1.12 | 1.12 | 87 | 1016.0 |
| 20260906173059 | 19 | 0 | 0.0 | 4.8 | 0.74 | 0.99 | 0.99 | 86 | 1015.7 |
| 20260906171550 | 19 | 0 | 0.0 | 8.0 | 0.41 | 0.58 | 0.58 | 85 | 1016.5 |
| 20260906170047 | 20 | 0 | 0.0 | 6.4 | 0.30 | 0.41 | 0.41 | 84 | 1015.0 |
| 20260906164555 | 20 | 0 | 1.6 | 6.4 | 0.28 | 0.30 | 0.30 | 83 | 1014.8 |
| 20260906163050 | 20 | 0 | 0.0 | 3.2 | 0.23 | 0.25 | 0.25 | 83 | 1015.0 |
| 20260906161545 | 20 | 326 | 0.0 | 4.8 | 0.15 | 0.18 | 0.18 | 82 | 1015.1 |
| 20260906160045 | 20 | 0 | 0.0 | 3.2 | 0.08 | 0.10 | 0.10 | 81 | 1014.7 |
| 20260906154557 | 20 | 0 | 0.0 | 1.6 | 0.03 | 0.03 | 0.03 | 80 | 1014.2 |
| 20260906153046 | 20 | 0 | 0.0 | 3.2 | 0.03 | 0.03 | 0.03 | 80 | 1013.7 |
| 20260906151603 | 20 | 0 | 0.0 | 3.2 | 0.03 | 0.03 | 0.03 | 79 | 1014.0 |
| 20260906150056 | 20 | 346 | 1.6 | 8.0 | 0.03 | 0.03 | 0.03 | 79 | 1013.3 |
| 20260906144548 | 20 | 355 | 1.6 | 8.0 | 0.00 | 0.00 | 0.00 | 78 | 1013.3 |
| 20260906143106 | 20 | 344 | 1.6 | 6.4 | 0.00 | 0.00 | 0.00 | 77 | 1013.9 |
| 20260906141545 | 20 | 301 | 3.2 | 8.0 | 0.00 | 0.00 | 0.00 | 77 | 1013.8 |
| 20260906140054 | 21 | 351 | 1.6 | 12.9 | 0.00 | 0.00 | 0.00 | 77 | 1013.2 |
| 20260906134553 | 21 | 52 | 3.2 | 8.0 | 0.00 | 0.00 | 0.00 | 75 | 1013.3 |
| 20260906133050 | 21 | 18 | 1.6 | 6.4 | 0.00 | 0.00 | 0.00 | 75 | 1013.4 |
| 20260906131554 | 21 | 352 | 1.6 | 9.7 | 0.00 | 0.00 | 0.00 | 77 | 1013.2 |
| 20260906130054 | 21 | 11 | 0.0 | 3.2 | 0.00 | 0.00 | 0.00 | 78 | 1013.1 |
| 20260906124549 | 22 | 312 | 0.0 | 6.4 | 0.00 | 0.00 | 0.00 | 78 | 1013.1 |
| 20260906123048 | 22 | 0 | 0.0 | 3.2 | 0.00 | 0.00 | 0.00 | 79 | 1012.5 |
| 20260906121547 | 22 | 290 | 0.0 | 3.2 | 0.00 | 0.00 | 0.00 | 78 | 1012.3 |
| 20260906120052 | 22 | 0 | 0.0 | 0.0 | 0.00 | 0.00 | 0.00 | 78 | 1012.0 |
| 20260906114551 | 22 | 0 | 0.0 | 1.6 | 0.00 | 0.00 | 0.00 | 78 | 1011.9 |
| 20260906113050 | 22 | 0 | 0.0 | 0.0 | 0.00 | 0.00 | 0.00 | 78 | 1011.9 |
| 20260906111545 | 22 | 0 | 0.0 | 0.0 | 0.00 | 0.00 | 0.00 | 78 | 1012.0 |
| 20260906110053 | 22 | 0 | 0.0 | 0.0 | 0.00 | 0.00 | 0.00 | 78 | 1012.1 |
| 20260906104548 | 21 | 0 | 0.0 | 0.0 | 0.00 | 0.00 | 0.00 | 78 | 1012.2 |
| 20260906103046 | 21 | 0 | 0.0 | 0.0 | 0.00 | 0.00 | 0.00 | 78 | 1012.2 |
| 20260906101554 | 21 | 0 | 0.0 | 0.0 | 0.00 | 0.00 | 0.00 | 78 | 1012.2 |
| 20260906100051 | 21 | 0 | 0.0 | 0.0 | 0.00 | 0.00 | 0.00 | 77 | 1012.2 |
| 20260906094546 | 21 | 0 | 0.0 | 0.0 | 0.00 | 0.00 | 0.00 | 77 | 1012.1 |
| 20260906093115 | 21 | 0 | 0.0 | 0.0 | 0.00 | 0.00 | 0.00 | 77 | 1012.3 |
| 20260906091557 | 21 | 0 | 0.0 | 0.0 | 0.00 | 0.00 | 0.00 | 77 | 1012.1 |
| 20260906090057 | 21 | 0 | 0.0 | 0.0 | 0.00 | 0.00 | 0.00 | 76 | 1012.2 |
| 20260906084548 | 21 | 0 | 0.0 | 0.0 | 0.00 | 0.00 | 0.00 | 75 | 1012.4 |
| 20260906083056 | 21 | 0 | 0.0 | 0.0 | 0.00 | 0.00 | 0.00 | 75 | 1012.4 |
| 20260906081557 | 21 | 0 | 0.0 | 0.0 | 0.00 | 0.00 | 0.00 | 75 | 1012.6 |
| 20260906080054 | 21 | 0 | 0.0 | 0.0 | 0.00 | 0.00 | 0.00 | 74 | 1012.5 |
| 20260906074549 | 21 | 0 | 0.0 | 0.0 | 0.00 | 0.00 | 0.00 | 73 | 1012.5 |
| 20260906073046 | 21 | 0 | 0.0 | 0.0 | 0.00 | 0.00 | 0.00 | 72 | 1012.5 |
| 20260906071556 | 22 | 0 | 0.0 | 0.0 | 0.00 | 0.00 | 0.00 | 71 | 1012.7 |
| 20260906070044 | 22 | 0 | 0.0 | 0.0 | 0.00 | 0.00 | 0.00 | 71 | 1012.5 |
| 20260906064548 | 22 | 0 | 0.0 | 1.6 | 0.00 | 0.00 | 0.00 | 70 | 1012.2 |
| 20260906063047 | 22 | 0 | 0.0 | 1.6 | 0.00 | 0.00 | 0.00 | 69 | 1012.3 |
| 20260906061546 | 22 | 0 | 0.0 | 0.0 | 0.00 | 0.00 | 0.00 | 68 | 1012.5 |
| 20260906060055 | 22 | 0 | 0.0 | 1.6 | 0.00 | 0.00 | 0.00 | 67 | 1012.5 |
| 20260906054554 | 22 | 0 | 0.0 | 3.2 | 0.00 | 0.00 | 0.00 | 67 | 1012.5 |
| 20260906053047 | 23 | 0 | 0.0 | 3.2 | 0.00 | 0.00 | 0.00 | 67 | 1012.6 |
| 20260906051552 | 23 | 0 | 0.0 | 3.2 | 0.00 | 0.00 | 0.00 | 67 | 1012.8 |
| 20260906050110 | 23 | 0 | 0.0 | 3.2 | 0.00 | 0.00 | 0.00 | 66 | 1012.8 |
| 20260906044553 | 23 | 288 | 0.0 | 3.2 | 0.00 | 0.00 | 0.00 | 65 | 1012.7 |
| 20260906043050 | 23 | 288 | 0.0 | 4.8 | 0.00 | 0.00 | 0.00 | 64 | 1012.7 |
| 20260906041555 | 23 | 0 | 0.0 | 1.6 | 0.00 | 0.00 | 0.00 | 63 | 1012.6 |
| 20260906040053 | 23 | 0 | 0.0 | 1.6 | 0.00 | 0.00 | 0.00 | 64 | 1012.6 |
| 20260906034548 | 23 | 0 | 0.0 | 3.2 | 0.00 | 0.00 | 0.00 | 65 | 1012.5 |
| 20260906033046 | 23 | 0 | 0.0 | 6.4 | 0.00 | 0.00 | 0.00 | 66 | 1012.3 |
| 20260906031555 | 24 | 0 | 0.0 | 3.2 | 0.00 | 0.00 | 0.00 | 67 | 1012.2 |
| 20260906030056 | 24 | 309 | 0.0 | 4.8 | 0.00 | 0.00 | 0.00 | 67 | 1012.0 |
| 20260906024546 | 25 | 306 | 0.0 | 6.4 | 0.00 | 0.00 | 0.00 | 66 | 1011.9 |
| 20260906023044 | 25 | 0 | 0.0 | 6.4 | 0.00 | 0.00 | 0.00 | 65 | 1012.0 |
| 20260906021605 | 25 | 0 | 3.2 | 14.5 | 0.00 | 0.00 | 0.00 | 63 | 1012.0 |
| 20260906020047 | 26 | 291 | 1.6 | 12.9 | 0.00 | 0.00 | 0.00 | 61 | 1012.0 |
| 20260906014552 | 26 | 325 | 3.2 | 11.3 | 0.00 | 0.00 | 0.00 | 58 | 1011.9 |
| 20260906013049 | 27 | 0 | 0.0 | 4.8 | 0.00 | 0.00 | 0.00 | 56 | 1011.9 |
| 20260906011547 | 27 | 0 | 1.6 | 9.7 | 0.00 | 0.00 | 0.00 | 54 | 1011.7 |
| 20260906010047 | 28 | 312 | 1.6 | 8.0 | 0.00 | 0.00 | 0.00 | 51 | 1011.6 |
| 20260906004556 | 29 | 323 | 3.2 | 6.4 | 0.00 | 0.00 | 0.00 | 48 | 1011.6 |
| 20260906003102 | 30 | 0 | 1.6 | 11.3 | 0.00 | 0.00 | 0.00 | 31 | 1011.6 |
| 20260906001547 | 30 | 223 | 6.4 | 14.5 | 0.00 | 0.00 | 0.00 | 31 | 1011.5 |
| 20260906000046 | 30 | 206 | 4.8 | 12.9 | 0.00 | 0.00 | 0.00 | 33 | 1011.5 |
| 20260905234603 | 31 | 186 | 4.8 | 14.5 | 0.00 | 0.00 | 0.00 | 32 | 1011.6 |
| 20260905233049 | 31 | 176 | 6.4 | 14.5 | 0.00 | 0.00 | 0.00 | 30 | 1011.5 |
| 20260905231557 | 31 | 194 | 4.8 | 14.5 | 0.00 | 0.00 | 0.00 | 28 | 1011.5 |
| 20260905230051 | 32 | 184 | 3.2 | 14.5 | 0.00 | 0.00 | 0.00 | 26 | 1011.5 |
| 20260905224548 | 31 | 209 | 6.4 | 16.1 | 0.00 | 0.00 | 0.00 | 24 | 1011.8 |
| 20260905223046 | 31 | 177 | 4.8 | 12.9 | 0.00 | 0.00 | 0.00 | 25 | 1012.0 |
| 20260905221554 | 31 | 198 | 1.6 | 12.9 | 0.00 | 0.00 | 0.00 | 26 | 1012.1 |
| 20260905220052 | 31 | 167 | 6.4 | 14.5 | 0.00 | 0.00 | 0.00 | 25 | 1012.3 |
| 20260905214557 | 31 | 157 | 6.4 | 14.5 | 0.00 | 0.00 | 0.00 | 24 | 1012.6 |
| 20260905213047 | 31 | 167 | 3.2 | 11.3 | 0.00 | 0.00 | 0.00 | 27 | 1012.7 |
| 20260905211554 | 31 | 170 | 4.8 | 14.5 | 0.00 | 0.00 | 0.00 | 27 | 1012.7 |
| 20260905210052 | 31 | 179 | 3.2 | 14.5 | 0.00 | 0.00 | 0.00 | 29 | 1012.9 |
| 20260905204545 | 31 | 156 | 3.2 | 11.3 | 0.00 | 0.00 | 0.00 | 30 | 1012.9 |
| 20260905203045 | 30 | 0 | 3.2 | 11.3 | 0.00 | 0.00 | 0.00 | 33 | 1013.0 |
| 20260905201554 | 30 | 160 | 3.2 | 12.9 | 0.00 | 0.00 | 0.00 | 33 | 1013.2 |
| 20260905200054 | 30 | 233 | 3.2 | 17.7 | 0.00 | 0.00 | 0.00 | 35 | 1013.3 |
| 20260905194546 | 30 | 170 | 6.4 | 14.5 | 0.00 | 0.00 | 0.00 | 39 | 1013.5 |